sensor_id;sensor_type;location;lat;lon;timestamp;P1;durP1;ratioP1;P2;durP2;ratioP2
86277;SDS011;76938;49.472;8.334;2024-03-23T00:53:20;12.10;;;6.13;;
86277;SDS011;76938;49.472;8.334;2024-03-23T00:55:45;14.83;;;6.63;;
86277;SDS011;76938;49.472;8.334;2024-03-23T00:58:10;13.20;;;6.43;;
86277;SDS011;76938;49.472;8.334;2024-03-23T01:00:38;9.57;;;6.13;;
86277;SDS011;76938;49.472;8.334;2024-03-23T01:03:03;10.63;;;6.13;;
86277;SDS011;76938;49.472;8.334;2024-03-23T01:05:29;10.02;;;5.72;;
86277;SDS011;76938;49.472;8.334;2024-03-23T01:07:57;10.20;;;6.38;;
86277;SDS011;76938;49.472;8.334;2024-03-23T01:10:24;10.80;;;6.15;;
86277;SDS011;76938;49.472;8.334;2024-03-23T01:12:50;9.63;;;6.07;;
86277;SDS011;76938;49.472;8.334;2024-03-23T01:15:15;11.00;;;6.00;;
86277;SDS011;76938;49.472;8.334;2024-03-23T01:17:43;8.82;;;5.78;;
86277;SDS011;76938;49.472;8.334;2024-03-23T01:20:10;10.00;;;5.72;;
86277;SDS011;76938;49.472;8.334;2024-03-23T01:22:42;15.18;;;5.95;;
86277;SDS011;76938;49.472;8.334;2024-03-23T01:25:09;9.32;;;4.72;;
86277;SDS011;76938;49.472;8.334;2024-03-23T01:27:37;9.55;;;5.50;;
86277;SDS011;76938;49.472;8.334;2024-03-23T01:30:03;10.10;;;5.73;;
86277;SDS011;76938;49.472;8.334;2024-03-23T01:32:28;9.40;;;5.40;;
86277;SDS011;76938;49.472;8.334;2024-03-23T01:34:54;11.17;;;4.90;;
86277;SDS011;76938;49.472;8.334;2024-03-23T01:37:22;9.77;;;5.70;;
86277;SDS011;76938;49.472;8.334;2024-03-23T01:39:49;10.93;;;5.95;;
86277;SDS011;76938;49.472;8.334;2024-03-23T01:42:14;9.67;;;5.47;;
86277;SDS011;76938;49.472;8.334;2024-03-23T01:44:42;12.32;;;5.85;;
86277;SDS011;76938;49.472;8.334;2024-03-23T01:47:12;11.30;;;5.45;;
86277;SDS011;76938;49.472;8.334;2024-03-23T01:49:37;8.30;;;5.25;;
86277;SDS011;76938;49.472;8.334;2024-03-23T01:52:08;8.93;;;5.38;;
86277;SDS011;76938;49.472;8.334;2024-03-23T01:54:33;11.73;;;5.82;;
86277;SDS011;76938;49.472;8.334;2024-03-23T01:57:01;11.35;;;5.75;;
86277;SDS011;76938;49.472;8.334;2024-03-23T01:59:29;13.73;;;6.47;;
86277;SDS011;76938;49.472;8.334;2024-03-23T02:01:59;7.80;;;5.10;;
86277;SDS011;76938;49.472;8.334;2024-03-23T02:04:25;11.25;;;5.88;;
86277;SDS011;76938;49.472;8.334;2024-03-23T02:06:50;11.10;;;6.43;;
86277;SDS011;76938;49.472;8.334;2024-03-23T02:09:20;14.40;;;7.00;;
86277;SDS011;76938;49.472;8.334;2024-03-23T02:11:45;9.50;;;5.67;;
86277;SDS011;76938;49.472;8.334;2024-03-23T02:14:10;14.23;;;6.73;;
86277;SDS011;76938;49.472;8.334;2024-03-23T02:16:36;10.33;;;6.13;;
86277;SDS011;76938;49.472;8.334;2024-03-23T02:19:03;11.90;;;5.67;;
86277;SDS011;76938;49.472;8.334;2024-03-23T02:21:31;13.15;;;5.90;;
86277;SDS011;76938;49.472;8.334;2024-03-23T02:23:57;12.23;;;6.07;;
86277;SDS011;76938;49.472;8.334;2024-03-23T02:26:23;11.18;;;6.15;;
86277;SDS011;76938;49.472;8.334;2024-03-23T02:28:51;15.57;;;6.90;;
86277;SDS011;76938;49.472;8.334;2024-03-23T02:31:19;13.93;;;6.28;;
86277;SDS011;76938;49.472;8.334;2024-03-23T02:33:47;11.50;;;5.85;;
86277;SDS011;76938;49.472;8.334;2024-03-23T02:36:12;15.25;;;6.47;;
86277;SDS011;76938;49.472;8.334;2024-03-23T02:38:37;13.83;;;6.70;;
86277;SDS011;76938;49.472;8.334;2024-03-23T02:41:03;12.93;;;6.27;;
86277;SDS011;76938;49.472;8.334;2024-03-23T02:43:31;12.80;;;6.78;;
86277;SDS011;76938;49.472;8.334;2024-03-23T02:45:58;14.00;;;6.28;;
86277;SDS011;76938;49.472;8.334;2024-03-23T02:48:24;14.77;;;6.82;;
86277;SDS011;76938;49.472;8.334;2024-03-23T02:50:49;13.18;;;6.88;;
86277;SDS011;76938;49.472;8.334;2024-03-23T02:53:15;15.98;;;6.88;;
86277;SDS011;76938;49.472;8.334;2024-03-23T02:55:43;13.75;;;6.45;;
86277;SDS011;76938;49.472;8.334;2024-03-23T02:58:08;15.77;;;6.88;;
86277;SDS011;76938;49.472;8.334;2024-03-23T03:00:36;14.68;;;6.88;;
86277;SDS011;76938;49.472;8.334;2024-03-23T03:03:01;13.83;;;7.17;;
86277;SDS011;76938;49.472;8.334;2024-03-23T03:05:28;13.38;;;7.55;;
86277;SDS011;76938;49.472;8.334;2024-03-23T03:07:55;12.32;;;5.15;;
86277;SDS011;76938;49.472;8.334;2024-03-23T03:10:25;10.77;;;5.10;;
86277;SDS011;76938;49.472;8.334;2024-03-23T03:12:54;11.43;;;4.85;;
86277;SDS011;76938;49.472;8.334;2024-03-23T03:15:19;16.40;;;5.87;;
86277;SDS011;76938;49.472;8.334;2024-03-23T03:17:44;14.13;;;5.93;;
86277;SDS011;76938;49.472;8.334;2024-03-23T03:20:10;17.58;;;6.43;;
86277;SDS011;76938;49.472;8.334;2024-03-23T03:22:38;15.75;;;6.88;;
86277;SDS011;76938;49.472;8.334;2024-03-23T03:25:03;14.05;;;6.72;;
86277;SDS011;76938;49.472;8.334;2024-03-23T03:27:32;14.90;;;6.03;;
86277;SDS011;76938;49.472;8.334;2024-03-23T03:29:57;17.77;;;6.85;;
86277;SDS011;76938;49.472;8.334;2024-03-23T03:32:30;15.23;;;6.50;;
86277;SDS011;76938;49.472;8.334;2024-03-23T03:34:57;12.85;;;6.45;;
86277;SDS011;76938;49.472;8.334;2024-03-23T03:37:24;12.43;;;6.00;;
86277;SDS011;76938;49.472;8.334;2024-03-23T03:39:52;13.43;;;6.35;;
86277;SDS011;76938;49.472;8.334;2024-03-23T03:42:18;16.13;;;6.80;;
86277;SDS011;76938;49.472;8.334;2024-03-23T03:44:43;16.65;;;5.97;;
86277;SDS011;76938;49.472;8.334;2024-03-23T03:47:08;15.37;;;7.00;;
86277;SDS011;76938;49.472;8.334;2024-03-23T03:49:33;16.98;;;7.10;;
86277;SDS011;76938;49.472;8.334;2024-03-23T03:51:59;14.87;;;7.20;;
86277;SDS011;76938;49.472;8.334;2024-03-23T03:54:27;17.60;;;7.72;;
86277;SDS011;76938;49.472;8.334;2024-03-23T03:56:52;18.48;;;7.53;;
86277;SDS011;76938;49.472;8.334;2024-03-23T03:59:20;20.48;;;7.85;;
86277;SDS011;76938;49.472;8.334;2024-03-23T04:01:48;17.75;;;7.82;;
86277;SDS011;76938;49.472;8.334;2024-03-23T04:04:15;17.67;;;8.20;;
86277;SDS011;76938;49.472;8.334;2024-03-23T04:06:41;16.25;;;7.63;;
86277;SDS011;76938;49.472;8.334;2024-03-23T04:09:10;18.13;;;7.20;;
86277;SDS011;76938;49.472;8.334;2024-03-23T04:11:38;16.92;;;7.20;;
86277;SDS011;76938;49.472;8.334;2024-03-23T04:14:03;14.20;;;6.47;;
86277;SDS011;76938;49.472;8.334;2024-03-23T04:16:33;21.05;;;7.15;;
86277;SDS011;76938;49.472;8.334;2024-03-23T04:19:04;19.17;;;7.63;;
86277;SDS011;76938;49.472;8.334;2024-03-23T04:21:33;17.52;;;6.65;;
86277;SDS011;76938;49.472;8.334;2024-03-23T04:24:00;17.70;;;6.78;;
86277;SDS011;76938;49.472;8.334;2024-03-23T04:26:27;12.93;;;5.60;;
86277;SDS011;76938;49.472;8.334;2024-03-23T04:28:53;10.13;;;5.55;;
86277;SDS011;76938;49.472;8.334;2024-03-23T04:31:21;12.55;;;5.90;;
86277;SDS011;76938;49.472;8.334;2024-03-23T04:33:48;14.02;;;6.05;;
86277;SDS011;76938;49.472;8.334;2024-03-23T04:36:13;12.13;;;4.87;;
86277;SDS011;76938;49.472;8.334;2024-03-23T04:38:41;9.32;;;3.88;;
86277;SDS011;76938;49.472;8.334;2024-03-23T04:41:06;9.30;;;3.97;;
86277;SDS011;76938;49.472;8.334;2024-03-23T04:43:32;9.63;;;3.93;;
86277;SDS011;76938;49.472;8.334;2024-03-23T04:45:58;8.50;;;3.40;;
86277;SDS011;76938;49.472;8.334;2024-03-23T04:48:25;11.25;;;3.03;;
86277;SDS011;76938;49.472;8.334;2024-03-23T04:50:54;14.57;;;2.88;;
86277;SDS011;76938;49.472;8.334;2024-03-23T04:53:22;6.07;;;2.08;;
86277;SDS011;76938;49.472;8.334;2024-03-23T04:55:49;5.07;;;2.13;;
86277;SDS011;76938;49.472;8.334;2024-03-23T04:58:15;4.45;;;1.77;;
86277;SDS011;76938;49.472;8.334;2024-03-23T05:00:42;2.08;;;0.95;;
86277;SDS011;76938;49.472;8.334;2024-03-23T05:03:10;2.40;;;1.03;;
86277;SDS011;76938;49.472;8.334;2024-03-23T05:05:35;2.95;;;1.48;;
86277;SDS011;76938;49.472;8.334;2024-03-23T05:08:01;2.90;;;1.10;;
86277;SDS011;76938;49.472;8.334;2024-03-23T05:10:26;3.17;;;1.45;;
86277;SDS011;76938;49.472;8.334;2024-03-23T05:12:51;3.83;;;1.30;;
86277;SDS011;76938;49.472;8.334;2024-03-23T05:15:19;2.70;;;0.55;;
86277;SDS011;76938;49.472;8.334;2024-03-23T05:17:44;3.40;;;0.53;;
86277;SDS011;76938;49.472;8.334;2024-03-23T05:20:09;1.03;;;0.43;;
86277;SDS011;76938;49.472;8.334;2024-03-23T05:22:41;1.08;;;0.40;;
86277;SDS011;76938;49.472;8.334;2024-03-23T05:25:06;1.05;;;0.25;;
86277;SDS011;76938;49.472;8.334;2024-03-23T05:27:32;0.90;;;0.38;;
86277;SDS011;76938;49.472;8.334;2024-03-23T05:30:01;0.80;;;0.28;;
86277;SDS011;76938;49.472;8.334;2024-03-23T05:32:26;1.23;;;0.60;;
86277;SDS011;76938;49.472;8.334;2024-03-23T05:34:54;1.85;;;0.93;;
86277;SDS011;76938;49.472;8.334;2024-03-23T05:37:23;2.53;;;1.05;;
86277;SDS011;76938;49.472;8.334;2024-03-23T05:39:50;1.80;;;0.60;;
86277;SDS011;76938;49.472;8.334;2024-03-23T05:42:16;1.70;;;0.70;;
86277;SDS011;76938;49.472;8.334;2024-03-23T05:44:43;1.48;;;0.73;;
86277;SDS011;76938;49.472;8.334;2024-03-23T05:47:13;0.95;;;0.32;;
86277;SDS011;76938;49.472;8.334;2024-03-23T05:49:40;1.88;;;0.60;;
86277;SDS011;76938;49.472;8.334;2024-03-23T05:52:08;1.25;;;0.60;;
86277;SDS011;76938;49.472;8.334;2024-03-23T05:54:38;0.95;;;0.30;;
86277;SDS011;76938;49.472;8.334;2024-03-23T05:57:08;0.90;;;0.35;;
86277;SDS011;76938;49.472;8.334;2024-03-23T05:59:34;0.75;;;0.25;;
86277;SDS011;76938;49.472;8.334;2024-03-23T06:01:59;1.05;;;0.30;;
86277;SDS011;76938;49.472;8.334;2024-03-23T06:04:29;0.95;;;0.40;;
86277;SDS011;76938;49.472;8.334;2024-03-23T06:06:54;1.33;;;0.32;;
86277;SDS011;76938;49.472;8.334;2024-03-23T06:09:25;0.88;;;0.20;;
86277;SDS011;76938;49.472;8.334;2024-03-23T06:11:50;1.77;;;0.50;;
86277;SDS011;76938;49.472;8.334;2024-03-23T06:14:20;1.05;;;0.47;;
86277;SDS011;76938;49.472;8.334;2024-03-23T06:16:46;1.30;;;0.30;;
86277;SDS011;76938;49.472;8.334;2024-03-23T06:19:11;1.70;;;0.20;;
86277;SDS011;76938;49.472;8.334;2024-03-23T06:21:42;0.93;;;0.20;;
86277;SDS011;76938;49.472;8.334;2024-03-23T06:24:11;0.95;;;0.20;;
86277;SDS011;76938;49.472;8.334;2024-03-23T06:26:39;2.28;;;0.20;;
86277;SDS011;76938;49.472;8.334;2024-03-23T06:29:05;0.57;;;0.10;;
86277;SDS011;76938;49.472;8.334;2024-03-23T06:31:31;2.05;;;0.10;;
86277;SDS011;76938;49.472;8.334;2024-03-23T06:33:56;0.60;;;0.10;;
86277;SDS011;76938;49.472;8.334;2024-03-23T06:36:21;2.00;;;0.13;;
86277;SDS011;76938;49.472;8.334;2024-03-23T06:38:49;0.83;;;0.10;;
86277;SDS011;76938;49.472;8.334;2024-03-23T06:41:14;1.20;;;0.10;;
86277;SDS011;76938;49.472;8.334;2024-03-23T06:43:40;0.20;;;0.03;;
86277;SDS011;76938;49.472;8.334;2024-03-23T06:46:07;0.10;;;0.00;;
86277;SDS011;76938;49.472;8.334;2024-03-23T06:48:32;0.33;;;0.10;;
86277;SDS011;76938;49.472;8.334;2024-03-23T06:50:58;0.10;;;0.00;;
86277;SDS011;76938;49.472;8.334;2024-03-23T06:53:23;1.15;;;0.00;;
86277;SDS011;76938;49.472;8.334;2024-03-23T06:55:51;0.08;;;0.00;;
86277;SDS011;76938;49.472;8.334;2024-03-23T06:58:18;1.35;;;0.05;;
86277;SDS011;76938;49.472;8.334;2024-03-23T07:00:45;0.50;;;0.00;;
86277;SDS011;76938;49.472;8.334;2024-03-23T07:03:10;0.10;;;0.00;;
86277;SDS011;76938;49.472;8.334;2024-03-23T07:05:38;0.20;;;0.00;;
86277;SDS011;76938;49.472;8.334;2024-03-23T07:08:05;0.00;;;0.00;;
86277;SDS011;76938;49.472;8.334;2024-03-23T07:10:31;2.80;;;0.00;;
86277;SDS011;76938;49.472;8.334;2024-03-23T07:12:58;0.70;;;0.00;;
86277;SDS011;76938;49.472;8.334;2024-03-23T07:15:28;0.43;;;0.10;;
86277;SDS011;76938;49.472;8.334;2024-03-23T07:17:53;1.63;;;0.13;;
86277;SDS011;76938;49.472;8.334;2024-03-23T07:20:21;0.50;;;0.15;;
86277;SDS011;76938;49.472;8.334;2024-03-23T07:22:46;0.98;;;0.30;;
86277;SDS011;76938;49.472;8.334;2024-03-23T07:25:15;3.35;;;0.50;;
86277;SDS011;76938;49.472;8.334;2024-03-23T07:27:42;3.15;;;0.40;;
86277;SDS011;76938;49.472;8.334;2024-03-23T07:30:07;2.40;;;0.40;;
86277;SDS011;76938;49.472;8.334;2024-03-23T07:32:36;1.80;;;0.47;;
86277;SDS011;76938;49.472;8.334;2024-03-23T07:35:04;2.90;;;0.30;;
86277;SDS011;76938;49.472;8.334;2024-03-23T07:37:29;4.50;;;0.20;;
86277;SDS011;76938;49.472;8.334;2024-03-23T07:39:57;1.95;;;0.25;;
86277;SDS011;76938;49.472;8.334;2024-03-23T07:42:23;2.83;;;0.22;;
86277;SDS011;76938;49.472;8.334;2024-03-23T07:44:48;2.35;;;0.65;;
86277;SDS011;76938;49.472;8.334;2024-03-23T07:47:14;3.88;;;0.30;;
86277;SDS011;76938;49.472;8.334;2024-03-23T07:49:39;2.57;;;0.30;;
86277;SDS011;76938;49.472;8.334;2024-03-23T07:52:07;3.72;;;0.30;;
86277;SDS011;76938;49.472;8.334;2024-03-23T07:54:33;2.35;;;0.63;;
86277;SDS011;76938;49.472;8.334;2024-03-23T07:57:05;2.92;;;0.93;;
86277;SDS011;76938;49.472;8.334;2024-03-23T07:59:33;2.35;;;0.38;;
86277;SDS011;76938;49.472;8.334;2024-03-23T08:01:59;3.08;;;0.75;;
86277;SDS011;76938;49.472;8.334;2024-03-23T08:04:24;3.47;;;0.30;;
86277;SDS011;76938;49.472;8.334;2024-03-23T08:06:50;1.17;;;0.40;;
86277;SDS011;76938;49.472;8.334;2024-03-23T08:09:20;3.80;;;0.80;;
86277;SDS011;76938;49.472;8.334;2024-03-23T08:11:47;3.97;;;1.02;;
86277;SDS011;76938;49.472;8.334;2024-03-23T08:14:15;1.10;;;0.40;;
86277;SDS011;76938;49.472;8.334;2024-03-23T08:16:40;1.63;;;0.60;;
86277;SDS011;76938;49.472;8.334;2024-03-23T08:19:08;3.95;;;0.77;;
86277;SDS011;76938;49.472;8.334;2024-03-23T08:21:34;5.20;;;0.63;;
86277;SDS011;76938;49.472;8.334;2024-03-23T08:23:59;3.40;;;0.73;;
86277;SDS011;76938;49.472;8.334;2024-03-23T08:26:27;2.83;;;0.70;;
86277;SDS011;76938;49.472;8.334;2024-03-23T08:28:54;2.27;;;0.53;;
86277;SDS011;76938;49.472;8.334;2024-03-23T08:31:20;2.88;;;0.50;;
86277;SDS011;76938;49.472;8.334;2024-03-23T08:33:50;1.33;;;0.30;;
86277;SDS011;76938;49.472;8.334;2024-03-23T08:36:15;1.33;;;0.30;;
86277;SDS011;76938;49.472;8.334;2024-03-23T08:38:40;5.77;;;1.03;;
86277;SDS011;76938;49.472;8.334;2024-03-23T08:41:09;5.03;;;0.77;;
86277;SDS011;76938;49.472;8.334;2024-03-23T08:43:36;2.85;;;0.70;;
86277;SDS011;76938;49.472;8.334;2024-03-23T08:48:36;9.25;;;1.42;;
86277;SDS011;76938;49.472;8.334;2024-03-23T08:51:03;4.47;;;0.80;;
86277;SDS011;76938;49.472;8.334;2024-03-23T08:53:29;3.70;;;0.80;;
86277;SDS011;76938;49.472;8.334;2024-03-23T08:55:55;3.95;;;0.88;;
86277;SDS011;76938;49.472;8.334;2024-03-23T08:58:22;3.33;;;1.08;;
86277;SDS011;76938;49.472;8.334;2024-03-23T09:00:51;5.22;;;1.23;;
86277;SDS011;76938;49.472;8.334;2024-03-23T09:03:22;3.90;;;1.00;;
86277;SDS011;76938;49.472;8.334;2024-03-23T09:05:53;5.43;;;1.40;;
86277;SDS011;76938;49.472;8.334;2024-03-23T09:08:20;6.82;;;1.40;;
86277;SDS011;76938;49.472;8.334;2024-03-23T09:10:45;6.13;;;0.83;;
86277;SDS011;76938;49.472;8.334;2024-03-23T09:13:10;10.03;;;1.93;;
86277;SDS011;76938;49.472;8.334;2024-03-23T09:15:36;9.33;;;1.20;;
86277;SDS011;76938;49.472;8.334;2024-03-23T09:18:03;3.83;;;0.80;;
86277;SDS011;76938;49.472;8.334;2024-03-23T09:20:32;3.22;;;1.23;;
86277;SDS011;76938;49.472;8.334;2024-03-23T09:22:58;6.25;;;1.63;;
86277;SDS011;76938;49.472;8.334;2024-03-23T09:25:23;2.92;;;1.35;;
86277;SDS011;76938;49.472;8.334;2024-03-23T09:27:49;12.07;;;1.80;;
86277;SDS011;76938;49.472;8.334;2024-03-23T09:30:15;5.00;;;1.17;;
86277;SDS011;76938;49.472;8.334;2024-03-23T09:32:44;5.72;;;1.50;;
86277;SDS011;76938;49.472;8.334;2024-03-23T09:35:09;5.03;;;0.90;;
86277;SDS011;76938;49.472;8.334;2024-03-23T09:37:40;7.15;;;1.17;;
86277;SDS011;76938;49.472;8.334;2024-03-23T09:40:06;8.75;;;1.60;;
86277;SDS011;76938;49.472;8.334;2024-03-23T09:42:37;8.20;;;1.52;;
86277;SDS011;76938;49.472;8.334;2024-03-23T09:45:06;2.90;;;0.82;;
86277;SDS011;76938;49.472;8.334;2024-03-23T09:47:41;5.65;;;1.05;;
86277;SDS011;76938;49.472;8.334;2024-03-23T09:50:07;3.88;;;0.93;;
86277;SDS011;76938;49.472;8.334;2024-03-23T09:52:34;4.03;;;1.05;;
86277;SDS011;76938;49.472;8.334;2024-03-23T09:54:59;5.40;;;1.03;;
86277;SDS011;76938;49.472;8.334;2024-03-23T09:57:31;5.40;;;1.00;;
86277;SDS011;76938;49.472;8.334;2024-03-23T09:59:56;5.00;;;1.27;;
86277;SDS011;76938;49.472;8.334;2024-03-23T10:02:22;4.80;;;0.93;;
86277;SDS011;76938;49.472;8.334;2024-03-23T10:04:51;3.05;;;0.98;;
86277;SDS011;76938;49.472;8.334;2024-03-23T10:07:19;7.90;;;1.10;;
86277;SDS011;76938;49.472;8.334;2024-03-23T10:09:45;6.47;;;0.98;;
86277;SDS011;76938;49.472;8.334;2024-03-23T10:12:12;4.60;;;1.17;;
86277;SDS011;76938;49.472;8.334;2024-03-23T10:14:41;6.75;;;0.98;;
86277;SDS011;76938;49.472;8.334;2024-03-23T10:19:52;5.30;;;0.77;;
86277;SDS011;76938;49.472;8.334;2024-03-23T10:22:24;3.92;;;1.13;;
86277;SDS011;76938;49.472;8.334;2024-03-23T10:24:50;6.47;;;0.90;;
86277;SDS011;76938;49.472;8.334;2024-03-23T10:27:19;4.30;;;0.52;;
86277;SDS011;76938;49.472;8.334;2024-03-23T10:29:47;5.88;;;0.98;;
86277;SDS011;76938;49.472;8.334;2024-03-23T10:32:14;4.22;;;0.47;;
86277;SDS011;76938;49.472;8.334;2024-03-23T10:34:46;3.08;;;0.50;;
86277;SDS011;76938;49.472;8.334;2024-03-23T10:37:13;4.35;;;0.73;;
86277;SDS011;76938;49.472;8.334;2024-03-23T10:39:41;2.13;;;0.60;;
86277;SDS011;76938;49.472;8.334;2024-03-23T10:42:07;2.92;;;0.40;;
86277;SDS011;76938;49.472;8.334;2024-03-23T10:44:36;7.22;;;1.15;;
86277;SDS011;76938;49.472;8.334;2024-03-23T10:47:03;2.85;;;0.80;;
86277;SDS011;76938;49.472;8.334;2024-03-23T10:49:30;9.52;;;1.10;;
86277;SDS011;76938;49.472;8.334;2024-03-23T10:51:57;3.65;;;0.90;;
86277;SDS011;76938;49.472;8.334;2024-03-23T10:54:24;5.47;;;0.80;;
86277;SDS011;76938;49.472;8.334;2024-03-23T10:56:53;5.35;;;0.80;;
86277;SDS011;76938;49.472;8.334;2024-03-23T10:59:23;2.33;;;0.70;;
86277;SDS011;76938;49.472;8.334;2024-03-23T11:01:58;4.18;;;0.70;;
86277;SDS011;76938;49.472;8.334;2024-03-23T11:04:31;5.03;;;1.02;;
86277;SDS011;76938;49.472;8.334;2024-03-23T11:07:03;5.75;;;0.68;;
86277;SDS011;76938;49.472;8.334;2024-03-23T11:09:49;8.13;;;1.50;;
86277;SDS011;76938;49.472;8.334;2024-03-23T11:17:24;6.22;;;1.55;;
86277;SDS011;76938;49.472;8.334;2024-03-23T11:25:04;9.07;;;1.40;;
86277;SDS011;76938;49.472;8.334;2024-03-23T11:27:56;1.10;;;0.60;;
86277;SDS011;76938;49.472;8.334;2024-03-23T11:32:49;3.35;;;0.82;;
86277;SDS011;76938;49.472;8.334;2024-03-23T11:35:30;4.97;;;1.10;;
86277;SDS011;76938;49.472;8.334;2024-03-23T11:40:34;2.47;;;0.50;;
86277;SDS011;76938;49.472;8.334;2024-03-23T11:43:02;3.55;;;0.70;;
86277;SDS011;76938;49.472;8.334;2024-03-23T11:45:35;3.70;;;0.80;;
86277;SDS011;76938;49.472;8.334;2024-03-23T11:48:03;3.38;;;0.50;;
86277;SDS011;76938;49.472;8.334;2024-03-23T11:50:29;2.08;;;0.68;;
86277;SDS011;76938;49.472;8.334;2024-03-23T11:53:39;2.63;;;0.40;;
86277;SDS011;76938;49.472;8.334;2024-03-23T11:55:52;2.25;;;0.50;;
86277;SDS011;76938;49.472;8.334;2024-03-23T11:58:22;1.58;;;0.55;;
86277;SDS011;76938;49.472;8.334;2024-03-23T12:00:52;4.28;;;0.70;;
86277;SDS011;76938;49.472;8.334;2024-03-23T12:03:22;1.50;;;0.57;;
86277;SDS011;76938;49.472;8.334;2024-03-23T12:05:51;3.47;;;0.57;;
86277;SDS011;76938;49.472;8.334;2024-03-23T12:11:05;4.22;;;0.60;;
86277;SDS011;76938;49.472;8.334;2024-03-23T12:13:32;2.05;;;0.40;;
86277;SDS011;76938;49.472;8.334;2024-03-23T12:16:19;2.42;;;0.60;;
86277;SDS011;76938;49.472;8.334;2024-03-23T12:18:46;0.90;;;0.30;;
86277;SDS011;76938;49.472;8.334;2024-03-23T12:21:16;2.58;;;0.40;;
86277;SDS011;76938;49.472;8.334;2024-03-23T12:23:44;1.30;;;0.43;;
86277;SDS011;76938;49.472;8.334;2024-03-23T12:26:11;3.65;;;0.60;;
86277;SDS011;76938;49.472;8.334;2024-03-23T12:28:40;3.92;;;0.50;;
86277;SDS011;76938;49.472;8.334;2024-03-23T12:31:06;2.08;;;0.40;;
86277;SDS011;76938;49.472;8.334;2024-03-23T12:33:33;1.73;;;0.30;;
86277;SDS011;76938;49.472;8.334;2024-03-23T12:35:58;2.13;;;0.30;;
86277;SDS011;76938;49.472;8.334;2024-03-23T12:38:26;2.15;;;0.60;;
86277;SDS011;76938;49.472;8.334;2024-03-23T12:40:53;2.47;;;0.30;;
86277;SDS011;76938;49.472;8.334;2024-03-23T12:43:19;0.93;;;0.20;;
86277;SDS011;76938;49.472;8.334;2024-03-23T12:45:48;2.00;;;0.77;;
86277;SDS011;76938;49.472;8.334;2024-03-23T12:48:18;1.98;;;0.20;;
86277;SDS011;76938;49.472;8.334;2024-03-23T12:50:45;2.83;;;0.57;;
86277;SDS011;76938;49.472;8.334;2024-03-23T12:53:10;0.77;;;0.20;;
86277;SDS011;76938;49.472;8.334;2024-03-23T12:55:42;1.15;;;0.30;;
86277;SDS011;76938;49.472;8.334;2024-03-23T12:58:07;2.47;;;0.50;;
86277;SDS011;76938;49.472;8.334;2024-03-23T13:00:35;1.07;;;0.20;;
86277;SDS011;76938;49.472;8.334;2024-03-23T13:03:02;1.27;;;0.85;;
86277;SDS011;76938;49.472;8.334;2024-03-23T13:05:29;2.22;;;0.25;;
86277;SDS011;76938;49.472;8.334;2024-03-23T13:07:54;3.73;;;0.50;;
86277;SDS011;76938;49.472;8.334;2024-03-23T13:10:20;1.87;;;0.93;;
86277;SDS011;76938;49.472;8.334;2024-03-23T13:12:47;2.88;;;0.30;;
86277;SDS011;76938;49.472;8.334;2024-03-23T13:15:12;2.93;;;0.47;;
86277;SDS011;76938;49.472;8.334;2024-03-23T13:17:38;3.05;;;0.40;;
86277;SDS011;76938;49.472;8.334;2024-03-23T13:20:05;1.43;;;0.37;;
86277;SDS011;76938;49.472;8.334;2024-03-23T13:22:38;2.85;;;0.43;;
86277;SDS011;76938;49.472;8.334;2024-03-23T13:25:06;1.75;;;0.30;;
86277;SDS011;76938;49.472;8.334;2024-03-23T13:27:33;1.25;;;0.25;;
86277;SDS011;76938;49.472;8.334;2024-03-23T13:30:01;2.23;;;0.10;;
86277;SDS011;76938;49.472;8.334;2024-03-23T13:32:28;3.33;;;0.52;;
86277;SDS011;76938;49.472;8.334;2024-03-23T13:34:56;1.65;;;0.35;;
86277;SDS011;76938;49.472;8.334;2024-03-23T13:37:24;2.08;;;0.32;;
86277;SDS011;76938;49.472;8.334;2024-03-23T13:39:49;1.70;;;0.20;;
86277;SDS011;76938;49.472;8.334;2024-03-23T13:42:14;0.47;;;0.10;;
86277;SDS011;76938;49.472;8.334;2024-03-23T13:44:41;0.80;;;0.10;;
86277;SDS011;76938;49.472;8.334;2024-03-23T13:47:11;2.20;;;0.10;;
86277;SDS011;76938;49.472;8.334;2024-03-23T13:49:36;2.47;;;0.20;;
86277;SDS011;76938;49.472;8.334;2024-03-23T13:52:04;3.07;;;0.37;;
86277;SDS011;76938;49.472;8.334;2024-03-23T13:54:32;1.05;;;0.10;;
86277;SDS011;76938;49.472;8.334;2024-03-23T13:56:57;1.83;;;0.45;;
86277;SDS011;76938;49.472;8.334;2024-03-23T13:59:23;1.15;;;0.40;;
86277;SDS011;76938;49.472;8.334;2024-03-23T14:01:49;0.80;;;0.20;;
86277;SDS011;76938;49.472;8.334;2024-03-23T14:04:15;1.45;;;0.20;;
86277;SDS011;76938;49.472;8.334;2024-03-23T14:06:50;1.30;;;0.40;;
86277;SDS011;76938;49.472;8.334;2024-03-23T14:09:15;1.80;;;0.40;;
86277;SDS011;76938;49.472;8.334;2024-03-23T14:11:48;3.38;;;1.45;;
86277;SDS011;76938;49.472;8.334;2024-03-23T14:14:15;5.07;;;1.73;;
86277;SDS011;76938;49.472;8.334;2024-03-23T14:16:44;2.97;;;0.90;;
86277;SDS011;76938;49.472;8.334;2024-03-23T14:19:12;2.22;;;0.93;;
86277;SDS011;76938;49.472;8.334;2024-03-23T14:21:37;2.08;;;0.30;;
86277;SDS011;76938;49.472;8.334;2024-03-23T14:24:03;2.00;;;0.25;;
86277;SDS011;76938;49.472;8.334;2024-03-23T14:26:33;1.88;;;0.20;;
86277;SDS011;76938;49.472;8.334;2024-03-23T14:28:59;1.60;;;0.50;;
86277;SDS011;76938;49.472;8.334;2024-03-23T14:31:26;0.60;;;0.10;;
86277;SDS011;76938;49.472;8.334;2024-03-23T14:33:52;1.05;;;0.17;;
86277;SDS011;76938;49.472;8.334;2024-03-23T14:36:19;1.33;;;0.20;;
86277;SDS011;76938;49.472;8.334;2024-03-23T14:38:48;0.90;;;0.30;;
86277;SDS011;76938;49.472;8.334;2024-03-23T14:41:17;1.25;;;0.20;;
86277;SDS011;76938;49.472;8.334;2024-03-23T14:43:42;1.67;;;0.20;;
86277;SDS011;76938;49.472;8.334;2024-03-23T14:46:09;0.77;;;0.22;;
86277;SDS011;76938;49.472;8.334;2024-03-23T14:48:39;2.05;;;0.20;;
86277;SDS011;76938;49.472;8.334;2024-03-23T14:51:08;2.10;;;0.20;;
86277;SDS011;76938;49.472;8.334;2024-03-23T14:53:36;3.63;;;0.40;;
86277;SDS011;76938;49.472;8.334;2024-03-23T14:56:08;1.30;;;0.30;;
86277;SDS011;76938;49.472;8.334;2024-03-23T14:58:35;2.38;;;0.20;;
86277;SDS011;76938;49.472;8.334;2024-03-23T15:01:03;1.67;;;0.30;;
86277;SDS011;76938;49.472;8.334;2024-03-23T15:03:30;1.50;;;0.20;;
86277;SDS011;76938;49.472;8.334;2024-03-23T15:06:00;1.70;;;0.20;;
86277;SDS011;76938;49.472;8.334;2024-03-23T15:08:27;2.15;;;0.20;;
86277;SDS011;76938;49.472;8.334;2024-03-23T15:10:54;1.58;;;0.20;;
86277;SDS011;76938;49.472;8.334;2024-03-23T15:13:23;2.90;;;0.40;;
86277;SDS011;76938;49.472;8.334;2024-03-23T15:15:51;4.78;;;0.20;;
86277;SDS011;76938;49.472;8.334;2024-03-23T15:18:19;2.28;;;0.25;;
86277;SDS011;76938;49.472;8.334;2024-03-23T15:20:57;1.27;;;0.30;;
86277;SDS011;76938;49.472;8.334;2024-03-23T15:23:23;0.60;;;0.20;;
86277;SDS011;76938;49.472;8.334;2024-03-23T15:25:55;2.70;;;0.20;;
86277;SDS011;76938;49.472;8.334;2024-03-23T15:28:21;1.65;;;0.28;;
86277;SDS011;76938;49.472;8.334;2024-03-23T15:30:46;5.32;;;0.60;;
86277;SDS011;76938;49.472;8.334;2024-03-23T15:33:14;1.50;;;0.63;;
86277;SDS011;76938;49.472;8.334;2024-03-23T15:35:39;1.70;;;0.40;;
86277;SDS011;76938;49.472;8.334;2024-03-23T15:38:05;5.32;;;0.32;;
86277;SDS011;76938;49.472;8.334;2024-03-23T15:40:32;1.35;;;0.30;;
86277;SDS011;76938;49.472;8.334;2024-03-23T15:42:58;0.85;;;0.30;;
86277;SDS011;76938;49.472;8.334;2024-03-23T15:45:23;0.17;;;0.07;;
86277;SDS011;76938;49.472;8.334;2024-03-23T15:47:50;1.23;;;0.05;;
86277;SDS011;76938;49.472;8.334;2024-03-23T15:50:17;0.43;;;0.10;;
86277;SDS011;76938;49.472;8.334;2024-03-23T15:52:44;0.10;;;0.00;;
86277;SDS011;76938;49.472;8.334;2024-03-23T15:55:10;0.20;;;0.00;;
86277;SDS011;76938;49.472;8.334;2024-03-23T15:57:37;0.70;;;0.10;;
86277;SDS011;76938;49.472;8.334;2024-03-23T16:00:07;0.08;;;0.03;;
86277;SDS011;76938;49.472;8.334;2024-03-23T16:02:32;2.53;;;0.10;;